createdAt,value
2018-01-26T00:03:30.922Z,2.3
2018-01-26T00:08:30.879Z,2.2
2018-01-26T00:13:30.982Z,2.2
2018-01-26T00:18:40.839Z,2.2
2018-01-26T00:23:30.944Z,2.2
2018-01-26T00:28:30.793Z,2.2
2018-01-26T00:33:30.873Z,2.2
2018-01-26T00:38:30.934Z,2.2
2018-01-26T00:43:30.808Z,2.2
2018-01-26T00:48:30.829Z,2.2
2018-01-26T00:53:31.011Z,2.2
2018-01-26T00:58:30.820Z,2.3
2018-01-26T01:03:30.819Z,2.3
2018-01-26T01:08:30.815Z,2.3
2018-01-26T01:13:30.820Z,2.3
2018-01-26T01:18:30.943Z,2.2
2018-01-26T01:23:31.011Z,2.3
2018-01-26T01:28:30.916Z,2.3
2018-01-26T01:33:30.921Z,2.2
2018-01-26T01:38:30.844Z,2.2
2018-01-26T01:43:30.918Z,2.2
2018-01-26T01:48:30.935Z,2.2
2018-01-26T01:53:31.028Z,2.2
2018-01-26T01:58:31.020Z,2.2
2018-01-26T02:03:40.896Z,2.2
2018-01-26T02:08:30.932Z,2.2
2018-01-26T02:13:31.099Z,2.1
2018-01-26T02:18:31.043Z,2.1
2018-01-26T02:23:30.946Z,2.1
2018-01-26T02:28:30.855Z,2.1
2018-01-26T02:33:30.934Z,2.1
2018-01-26T02:38:31.148Z,2.1
2018-01-26T02:43:30.967Z,2.1
2018-01-26T02:48:30.991Z,2.1
2018-01-26T02:53:31.046Z,2.1
2018-01-26T02:58:30.867Z,2.1
2018-01-26T03:03:30.888Z,2.1
2018-01-26T03:08:31.026Z,1.9
2018-01-26T03:13:30.878Z,2
2018-01-26T03:18:30.977Z,2
2018-01-26T03:23:31.010Z,2
2018-01-26T03:28:30.965Z,1.9
2018-01-26T03:33:30.892Z,1.9
2018-01-26T03:38:31.004Z,2
2018-01-26T03:43:30.915Z,2
2018-01-26T03:48:30.898Z,2
2018-01-26T03:53:30.909Z,2
2018-01-26T03:58:30.931Z,1.8
2018-01-26T04:03:31.049Z,2
2018-01-26T04:08:30.929Z,2
2018-01-26T04:13:30.913Z,2
2018-01-26T04:18:30.940Z,2
2018-01-26T04:23:30.914Z,1.9
2018-01-26T04:28:30.921Z,1.9
2018-01-26T04:33:31.019Z,1.9
2018-01-26T04:38:31.062Z,1.9
2018-01-26T04:43:30.934Z,1.9
2018-01-26T04:48:30.996Z,1.9
2018-01-26T04:53:30.939Z,2
2018-01-26T04:58:30.978Z,1.9
2018-01-26T05:03:30.986Z,1.9
2018-01-26T05:08:31.066Z,1.9
2018-01-26T05:13:31.071Z,1.8
2018-01-26T05:18:30.948Z,1.9
2018-01-26T05:23:30.949Z,1.9
2018-01-26T05:28:30.978Z,1.9
2018-01-26T05:33:30.945Z,1.9
2018-01-26T05:38:31.013Z,1.9
2018-01-26T05:43:30.957Z,1.8
2018-01-26T05:48:31.018Z,1.9
2018-01-26T05:53:30.970Z,1.8
2018-01-26T05:58:40.947Z,1.7
2018-01-26T06:03:31.026Z,1.8
2018-01-26T06:08:31.047Z,1.7
2018-01-26T06:13:30.971Z,1.8
2018-01-26T06:18:31.021Z,1.7
2018-01-26T06:23:30.984Z,1.7
2018-01-26T06:28:31.026Z,1.7
2018-01-26T06:33:31.094Z,1.6
2018-01-26T06:38:31.024Z,1.6
2018-01-26T06:43:31.233Z,1.6
2018-01-26T06:48:31.165Z,1.7
2018-01-26T06:53:31.005Z,1.7
2018-01-26T06:58:31.099Z,1.6
2018-01-26T07:03:31.115Z,1.7
2018-01-26T07:08:31.177Z,1.6
2018-01-26T07:13:31.156Z,1.6
2018-01-26T07:18:31.011Z,1.6
2018-01-26T07:23:31.027Z,1.6
2018-01-26T07:28:31.176Z,1.6
2018-01-26T07:33:31.199Z,1.7
2018-01-26T07:38:31.124Z,1.6
2018-01-26T07:43:31.203Z,1.6
2018-01-26T07:48:31.136Z,1.6
2018-01-26T07:53:31.047Z,1.7
2018-01-26T07:58:31.145Z,1.6
2018-01-26T08:03:31.178Z,1.7
2018-01-26T08:08:31.036Z,1.6
2018-01-26T08:13:31.142Z,1.7
2018-01-26T08:18:31.074Z,1.7
2018-01-26T08:23:31.068Z,1.8
2018-01-26T08:28:31.273Z,1.7
2018-01-26T08:33:41.089Z,1.7
2018-01-26T08:38:31.189Z,1.8
2018-01-26T08:43:31.077Z,1.8
2018-01-26T08:48:31.062Z,1.8
2018-01-26T08:53:31.062Z,1.8
2018-01-26T08:58:31.220Z,1.8
2018-01-26T09:03:31.245Z,1.8
2018-01-26T09:08:31.163Z,1.8
2018-01-26T09:13:31.196Z,1.7
2018-01-26T09:18:31.097Z,1.7
2018-01-26T09:23:31.167Z,1.7
2018-01-26T09:28:31.181Z,1.8
2018-01-26T09:33:31.219Z,1.8
2018-01-26T09:38:31.181Z,1.8
2018-01-26T09:43:31.209Z,1.9
2018-01-26T09:48:31.201Z,1.9
2018-01-26T09:53:42.806Z,1.9
2018-01-26T09:58:31.109Z,1.9
2018-01-26T10:03:31.145Z,1.9
2018-01-26T10:08:31.716Z,1.9
2018-01-26T10:13:31.262Z,1.8
2018-01-26T10:18:31.202Z,1.8
2018-01-26T10:23:31.119Z,1.8
2018-01-26T10:28:31.249Z,1.9
2018-01-26T10:33:31.121Z,1.9
2018-01-26T10:38:31.334Z,2.1
2018-01-26T10:43:31.367Z,2
2018-01-26T10:48:31.254Z,1.9
2018-01-26T10:53:31.151Z,2
2018-01-26T10:58:31.146Z,2
2018-01-26T11:03:31.347Z,2.1
2018-01-26T11:08:31.442Z,2.1
2018-01-26T11:13:31.154Z,2.1
2018-01-26T11:18:41.394Z,2.1
2018-01-26T11:23:31.166Z,2.1
2018-01-26T11:28:31.140Z,2.2
2018-01-26T11:33:31.820Z,2.3
2018-01-26T11:38:31.231Z,2.3
2018-01-26T11:43:31.298Z,2.4
2018-01-26T11:48:31.384Z,2.3
2018-01-26T11:53:31.484Z,2.3
2018-01-26T11:58:31.178Z,2.2
2018-01-26T12:03:31.222Z,2.3
2018-01-26T12:08:31.379Z,2.2
2018-01-26T12:13:31.257Z,2.3
2018-01-26T12:18:31.420Z,2.3
2018-01-26T12:23:31.312Z,2.2
2018-01-26T12:28:31.612Z,2.2
2018-01-26T12:33:31.309Z,2.2
2018-01-26T12:38:31.340Z,2.2
2018-01-26T12:43:31.226Z,2.2
2018-01-26T12:48:31.236Z,2.2
2018-01-26T12:53:31.575Z,2.2
2018-01-26T12:58:31.391Z,2.3
2018-01-26T13:03:31.224Z,2.3
2018-01-26T13:08:31.230Z,2.2
2018-01-26T13:13:31.230Z,2.3
2018-01-26T13:18:31.375Z,2.4
2018-01-26T13:23:31.270Z,2.4
2018-01-26T13:28:31.441Z,2.7
2018-01-26T13:33:31.343Z,2.5
2018-01-26T13:38:31.265Z,2.7
2018-01-26T13:43:31.226Z,2.6
2018-01-26T13:48:31.240Z,2.6
2018-01-26T13:53:31.240Z,2.7
2018-01-26T13:58:31.502Z,2.7
2018-01-26T14:03:31.608Z,2.6
2018-01-26T14:08:31.345Z,2.6
2018-01-26T20:00:05.058Z,1.6
2018-01-26T22:40:12.963Z,1.4
2018-01-26T22:50:13.736Z,1.4
